createdAt,value
2022-08-04T00:00:39.188Z,99.90
2022-08-04T00:04:45.776Z,99.90
2022-08-04T00:08:56.337Z,99.90
2022-08-04T00:12:58.755Z,99.90
2022-08-04T00:17:03.406Z,99.90
2022-08-04T00:21:05.905Z,99.90
2022-08-04T00:25:07.832Z,99.90
2022-08-04T00:29:10.330Z,99.90
2022-08-04T00:33:12.753Z,99.90
2022-08-04T00:37:14.870Z,99.90
2022-08-04T00:41:19.544Z,99.90
2022-08-04T00:46:00.478Z,99.90
2022-08-04T00:50:11.966Z,99.90
2022-08-04T00:54:19.681Z,99.90
2022-08-04T00:58:27.769Z,99.90
2022-08-04T01:02:35.616Z,99.90
2022-08-04T01:06:41.257Z,99.90
2022-08-04T01:11:03.018Z,99.90
2022-08-04T01:15:17.298Z,99.90
2022-08-04T01:19:19.357Z,99.90
2022-08-04T01:23:30.213Z,99.90
2022-08-04T01:27:50.764Z,99.90
2022-08-04T01:32:02.349Z,99.90
2022-08-04T01:36:09.827Z,99.90
2022-08-04T01:40:13.625Z,99.90
2022-08-04T01:44:16.793Z,99.90
2022-08-04T01:48:23.892Z,99.90
2022-08-04T01:52:28.129Z,99.90
2022-08-04T01:56:30.815Z,99.90
2022-08-04T02:00:32.435Z,99.90
2022-08-04T02:04:35.489Z,99.90
2022-08-04T02:08:55.862Z,99.90
2022-08-04T02:13:16.219Z,99.90
2022-08-04T02:17:31.978Z,99.90
2022-08-04T02:21:42.723Z,99.90
2022-08-04T02:25:49.535Z,99.90
2022-08-04T02:30:00.678Z,99.90
2022-08-04T02:34:09.815Z,99.90
2022-08-04T02:38:12.765Z,99.90
2022-08-04T02:42:15.192Z,99.90
2022-08-04T02:46:23.426Z,99.90
2022-08-04T02:50:28.283Z,99.90
2022-08-04T02:54:33.945Z,99.90
2022-08-04T02:58:36.992Z,99.90
2022-08-04T03:02:38.640Z,99.90
2022-08-04T03:06:46.285Z,99.90
2022-08-04T03:10:57.359Z,99.90
2022-08-04T03:15:24.197Z,99.90
2022-08-04T03:19:25.933Z,99.90
2022-08-04T03:23:46.385Z,99.90
2022-08-04T03:27:51.151Z,99.90
2022-08-04T03:32:11.427Z,99.90
2022-08-04T03:36:38.492Z,99.90
2022-08-04T03:41:00.345Z,99.90
2022-08-04T03:45:02.029Z,99.90
2022-08-04T03:49:22.023Z,99.90
2022-08-04T03:53:33.426Z,99.90
2022-08-04T03:57:41.126Z,99.90
2022-08-04T04:02:02.175Z,99.90
2022-08-04T04:06:14.346Z,99.90
2022-08-04T04:10:30.282Z,99.90
2022-08-04T04:14:35.075Z,99.90
2022-08-04T04:18:39.752Z,99.90
2022-08-04T04:22:49.415Z,99.90
2022-08-04T04:26:57.085Z,99.90
2022-08-04T04:31:22.415Z,99.90
2022-08-04T04:35:24.361Z,99.90
2022-08-04T04:39:36.698Z,99.90
2022-08-04T04:43:59.487Z,99.90
2022-08-04T04:48:10.503Z,99.90
2022-08-04T04:52:27.371Z,99.90
2022-08-04T04:56:41.519Z,99.90
2022-08-04T05:00:46.028Z,99.90
2022-08-04T05:05:09.413Z,99.90
2022-08-04T05:09:29.950Z,99.90
2022-08-04T05:14:36.355Z,99.90
2022-08-04T05:17:57.188Z,99.90
2022-08-04T05:22:01.367Z,99.90
2022-08-04T05:26:11.725Z,99.90
2022-08-04T05:30:13.775Z,99.90
2022-08-04T05:34:17.339Z,99.90
2022-08-04T05:38:20.926Z,99.90
2022-08-04T05:42:23.435Z,99.90
2022-08-04T05:46:25.987Z,99.90
2022-08-04T05:50:28.165Z,99.90
2022-08-04T05:54:35.890Z,99.90
2022-08-04T05:58:38.328Z,99.90
2022-08-04T06:02:40.744Z,99.90
2022-08-04T06:06:46.297Z,99.90
2022-08-04T06:10:48.593Z,99.90
2022-08-04T06:14:51.023Z,99.90
2022-08-04T06:20:00.847Z,99.90
2022-08-04T06:23:16.855Z,99.90
2022-08-04T06:27:19.146Z,99.90
2022-08-04T06:32:27.885Z,99.90
2022-08-04T06:36:06.796Z,99.90
2022-08-04T06:40:31.681Z,99.90
2022-08-04T06:44:31.477Z,99.90
2022-08-04T06:48:33.827Z,99.90
2022-08-04T06:52:35.981Z,99.90
2022-08-04T06:56:39.689Z,99.90
2022-08-04T07:00:42.211Z,99.90
2022-08-04T07:04:44.580Z,99.90
2022-08-04T07:08:46.483Z,99.50
2022-08-04T07:12:48.329Z,98.90
2022-08-04T07:16:50.974Z,99.50
2022-08-04T07:20:52.728Z,98.10
2022-08-04T07:24:55.406Z,97.10
2022-08-04T07:28:59.693Z,95.70
2022-08-04T07:33:01.782Z,94.90
2022-08-04T07:37:03.615Z,95.40
2022-08-04T07:41:35.288Z,95.00
2022-08-04T07:45:31.567Z,93.60
2022-08-04T07:49:56.385Z,93.20
2022-08-04T07:53:56.693Z,92.90
2022-08-04T07:57:58.682Z,91.80
2022-08-04T08:02:01.319Z,91.10
2022-08-04T08:06:30.835Z,90.90
2022-08-04T08:10:26.012Z,88.90
2022-08-04T08:14:28.278Z,90.10
2022-08-04T08:18:30.330Z,83.90
2022-08-04T08:22:32.191Z,86.00
2022-08-04T08:26:34.819Z,83.80
2022-08-04T08:30:37.090Z,79.90
2022-08-04T08:34:39.355Z,76.80
2022-08-04T08:38:45.238Z,78.20
2022-08-04T08:44:05.207Z,72.30
2022-08-04T08:48:04.831Z,65.50
2022-08-04T08:52:05.285Z,66.70
2022-08-04T08:56:17.691Z,62.70
2022-08-04T09:00:38.081Z,61.00
2022-08-04T09:05:02.721Z,56.60
2022-08-04T09:09:23.286Z,53.80
2022-08-04T09:13:27.618Z,53.50
2022-08-04T09:17:33.730Z,55.30
2022-08-04T09:21:42.798Z,53.10
2022-08-04T09:25:53.043Z,53.50
2022-08-04T09:29:58.123Z,53.70
2022-08-04T09:34:11.663Z,52.70
2022-08-04T09:38:16.866Z,53.90
2022-08-04T09:42:25.656Z,53.20
2022-08-04T09:46:40.828Z,53.30
2022-08-04T09:50:49.943Z,54.50
2022-08-04T09:55:11.772Z,54.70
2022-08-04T09:59:14.094Z,54.00
2022-08-04T10:03:20.235Z,54.10
2022-08-04T10:07:34.531Z,54.80
2022-08-04T10:11:36.125Z,56.30
2022-08-04T10:16:00.805Z,53.70
2022-08-04T10:20:09.051Z,55.30
2022-08-04T10:24:30.010Z,53.00
2022-08-04T10:28:35.122Z,51.00
2022-08-04T10:32:55.739Z,55.70
2022-08-04T10:37:00.776Z,52.20
2022-08-04T10:41:10.322Z,52.00
2022-08-04T10:45:19.037Z,52.00
2022-08-04T10:49:24.166Z,52.90
2022-08-04T10:53:26.759Z,54.20
2022-08-04T10:57:36.952Z,51.80
2022-08-04T11:02:00.714Z,52.60
2022-08-04T11:06:05.023Z,52.80
2022-08-04T11:10:07.884Z,52.80
2022-08-04T11:14:13.801Z,55.00
2022-08-04T11:18:22.091Z,55.70
2022-08-04T11:22:25.561Z,55.60
2022-08-04T11:26:45.768Z,55.30
2022-08-04T11:30:57.685Z,56.60
2022-08-04T11:35:01.974Z,55.60
2022-08-04T11:39:15.697Z,56.80
2022-08-04T11:44:01.362Z,56.90
2022-08-04T11:47:48.469Z,55.50
2022-08-04T11:51:51.234Z,57.70
2022-08-04T11:56:08.241Z,58.20
2022-08-04T12:00:14.346Z,61.60
2022-08-04T12:04:26.892Z,64.60
2022-08-04T12:08:54.042Z,67.90
2022-08-04T12:13:14.589Z,69.00
2022-08-04T12:17:22.626Z,71.70
2022-08-04T12:21:34.667Z,75.80
2022-08-04T12:25:44.764Z,77.20
2022-08-04T12:30:54.201Z,76.90
2022-08-04T12:34:18.736Z,77.70
2022-08-04T12:38:21.686Z,79.00
2022-08-04T12:42:32.615Z,80.40
2022-08-04T12:46:35.351Z,80.20
2022-08-04T12:50:37.035Z,80.20
2022-08-04T12:54:39.204Z,78.90
2022-08-04T12:58:45.327Z,79.20
2022-08-04T13:02:47.430Z,78.10
2022-08-04T13:06:55.314Z,79.00
2022-08-04T13:10:57.844Z,79.20
2022-08-04T13:15:08.718Z,77.90
2022-08-04T13:19:12.152Z,75.70
2022-08-04T13:23:15.003Z,75.70
2022-08-04T13:27:24.272Z,76.10
2022-08-04T13:31:27.898Z,75.90
2022-08-04T13:35:55.168Z,75.40
2022-08-04T13:39:59.516Z,75.80
2022-08-04T13:44:18.534Z,76.20
2022-08-04T13:48:32.699Z,77.20
2022-08-04T13:52:35.217Z,77.50
2022-08-04T13:56:51.534Z,78.30
2022-08-04T14:01:01.215Z,78.00
2022-08-04T14:05:18.108Z,76.80
2022-08-04T14:09:35.439Z,76.80
2022-08-04T14:13:41.579Z,76.10
2022-08-04T14:17:43.763Z,75.70
2022-08-04T14:21:45.402Z,76.90
2022-08-04T14:25:47.196Z,78.80
2022-08-04T14:29:49.336Z,78.20
2022-08-04T14:34:02.118Z,76.90
2022-08-04T14:38:07.991Z,77.80
2022-08-04T14:42:14.287Z,77.90
2022-08-04T14:46:16.835Z,78.60
2022-08-04T14:50:19.236Z,79.80
2022-08-04T14:54:34.292Z,79.20
2022-08-04T14:58:39.431Z,79.40
2022-08-04T15:02:42.758Z,79.70
2022-08-04T15:06:46.668Z,80.20
2022-08-04T15:10:48.347Z,79.00
2022-08-04T15:14:50.076Z,80.20
2022-08-04T15:18:52.662Z,83.10
2022-08-04T15:22:56.469Z,84.50
2022-08-04T15:26:59.772Z,85.50
2022-08-04T15:32:04.786Z,85.90
2022-08-04T15:35:34.906Z,86.30
2022-08-04T15:39:58.568Z,87.70
2022-08-04T15:44:17.960Z,89.60
2022-08-04T15:48:20.219Z,91.10
2022-08-04T15:52:21.996Z,92.30
2022-08-04T15:56:24.654Z,92.50
2022-08-04T16:00:28.593Z,93.50
2022-08-04T16:04:30.234Z,94.20
2022-08-04T16:08:58.234Z,95.20
2022-08-04T16:13:19.803Z,95.90
2022-08-04T16:17:21.543Z,96.20
2022-08-04T16:21:26.043Z,95.90
2022-08-04T16:25:46.294Z,95.70
2022-08-04T16:29:48.540Z,97.80
2022-08-04T16:33:50.278Z,97.90
2022-08-04T16:38:13.405Z,98.60
2022-08-04T16:42:41.677Z,98.80
2022-08-04T16:47:08.400Z,99.20
2022-08-04T16:51:15.379Z,99.10
2022-08-04T16:55:23.833Z,98.50
2022-08-04T16:59:25.960Z,98.30
2022-08-04T17:03:31.032Z,97.90
2022-08-04T17:08:02.242Z,98.00
2022-08-04T17:12:11.250Z,97.70
2022-08-04T17:16:18.100Z,97.90
2022-08-04T17:20:26.866Z,97.80
2022-08-04T17:24:28.624Z,97.50
2022-08-04T17:28:40.032Z,98.10
2022-08-04T17:32:51.644Z,97.30
2022-08-04T17:36:53.353Z,97.10
2022-08-04T17:40:58.191Z,97.50
2022-08-04T17:45:51.322Z,97.90
2022-08-04T17:50:06.092Z,98.10
2022-08-04T17:54:08.530Z,97.40
2022-08-04T17:58:38.960Z,97.40
2022-08-04T18:02:52.581Z,97.60
2022-08-04T18:07:00.230Z,98.30
2022-08-04T18:11:02.050Z,98.90
2022-08-04T18:15:11.111Z,99.90
2022-08-04T18:19:18.933Z,99.90
2022-08-04T18:23:31.392Z,99.90
2022-08-04T18:27:34.009Z,99.90
2022-08-04T18:31:37.914Z,99.90
2022-08-04T18:36:32.844Z,99.90
2022-08-04T18:40:09.733Z,99.90
2022-08-04T18:44:27.495Z,99.90
2022-08-04T18:48:36.942Z,99.90
2022-08-04T18:52:45.070Z,99.90
2022-08-04T18:57:24.465Z,99.90
2022-08-04T19:01:13.498Z,99.90
2022-08-04T19:05:17.115Z,99.90
2022-08-04T19:09:21.118Z,99.90
2022-08-04T19:13:25.492Z,99.90
2022-08-04T19:17:54.067Z,99.90
2022-08-04T19:21:51.248Z,99.90
2022-08-04T19:26:20.717Z,99.90
2022-08-04T19:30:29.396Z,99.90
2022-08-04T19:34:32.993Z,99.90
2022-08-04T19:38:37.239Z,99.90
2022-08-04T19:42:40.573Z,99.90
2022-08-04T19:46:46.456Z,99.90
2022-08-04T19:50:48.414Z,99.90
2022-08-04T19:54:50.411Z,99.90
2022-08-04T19:58:52.451Z,99.90
2022-08-04T20:02:55.201Z,99.90
2022-08-04T20:06:57.634Z,99.90
2022-08-04T20:11:00.158Z,99.90
2022-08-04T20:15:02.126Z,99.90
2022-08-04T20:19:18.749Z,99.90
2022-08-04T20:23:47.763Z,99.90
2022-08-04T20:27:59.333Z,99.90
2022-08-04T20:32:05.600Z,99.90
2022-08-04T20:36:10.546Z,99.90
2022-08-04T20:40:12.514Z,99.90
2022-08-04T20:44:20.208Z,99.90
2022-08-04T20:48:29.434Z,99.90
2022-08-04T20:52:37.161Z,99.90
2022-08-04T20:56:39.550Z,99.90
2022-08-04T21:00:53.242Z,99.90
2022-08-04T21:04:55.168Z,99.90
2022-08-04T21:08:57.818Z,99.90
2022-08-04T21:12:59.637Z,99.90
2022-08-04T21:17:01.553Z,99.90
2022-08-04T21:21:07.570Z,99.90
2022-08-04T21:25:15.984Z,99.90
2022-08-04T21:29:18.383Z,99.90
2022-08-04T21:33:20.217Z,99.90
2022-08-04T21:37:23.973Z,99.90
2022-08-04T21:42:27.606Z,99.90
2022-08-04T21:46:07.427Z,99.90
2022-08-04T21:50:09.222Z,99.90
2022-08-04T21:54:11.657Z,99.90
2022-08-04T21:58:33.181Z,99.90
2022-08-04T22:02:34.870Z,99.90
2022-08-04T22:06:36.880Z,99.90
2022-08-04T22:10:40.002Z,99.90
2022-08-04T22:14:50.495Z,99.90
2022-08-04T22:18:59.825Z,99.90
2022-08-04T22:23:15.432Z,99.90
2022-08-04T22:27:37.526Z,99.90
2022-08-04T22:31:56.103Z,99.90
2022-08-04T22:35:58.814Z,99.90
2022-08-04T22:40:00.564Z,99.90
2022-08-04T22:44:03.968Z,99.90
2022-08-04T22:48:05.693Z,99.90
2022-08-04T22:52:18.653Z,99.90
2022-08-04T22:56:38.480Z,99.90
2022-08-04T23:00:40.828Z,99.90
2022-08-04T23:04:44.361Z,99.90
2022-08-04T23:08:46.495Z,99.90
2022-08-04T23:12:50.176Z,99.90
2022-08-04T23:16:53.357Z,99.90
2022-08-04T23:20:55.127Z,99.90
2022-08-04T23:24:56.934Z,99.90
2022-08-04T23:28:58.601Z,99.90
2022-08-04T23:33:00.247Z,99.90
2022-08-04T23:37:01.886Z,99.90
2022-08-04T23:41:08.865Z,99.90
2022-08-04T23:45:15.328Z,99.90
2022-08-04T23:49:44.139Z,99.90
2022-08-04T23:54:01.801Z,99.90
2022-08-04T23:58:18.553Z,99.90
